Аэропорт: Симферополь. Симферополь

ICAO: URFF

METAR:
2020-06-04 04:30:00
URFF 040430Z 21003MPS CAVOK 14/10 Q1011 R19/090095 NOSIG
METAR:
2020-06-04 01:51:00
TAF URFF 040151Z 0403/0503 19003MPS 9999 FEW005 BKN016 TX21/0411Z TN08/0403Z PROB40 TEMPO 0403/0407 0300 FG OVC002 FM040700 25006G11MPS 9999 SCT020CB FM041800 18003MPS CAVOK